createdAt,value
2022-11-08T00:04:37.112Z,9.30
2022-11-08T00:07:22.181Z,6.22
2022-11-08T00:10:07.096Z,3.30
2022-11-08T00:12:52.684Z,6.47
2022-11-08T00:15:19.436Z,5.65
2022-11-08T00:17:46.364Z,9.27
2022-11-08T00:20:13.116Z,6.18
2022-11-08T00:22:39.752Z,3.78
2022-11-08T00:25:06.638Z,4.22
2022-11-08T00:27:33.207Z,4.20
2022-11-08T00:32:26.090Z,3.42
2022-11-08T00:34:53.164Z,6.13
2022-11-08T00:39:46.039Z,6.15
2022-11-08T00:42:12.655Z,3.60
2022-11-08T00:44:40.248Z,3.22
2022-11-08T00:47:06.860Z,4.65
2022-11-08T00:49:33.487Z,4.43
2022-11-08T00:52:00.130Z,4.22
2022-11-08T00:54:26.762Z,4.38
2022-11-08T00:56:53.336Z,4.70
2022-11-08T00:59:20.086Z,5.93
2022-11-08T01:01:47.161Z,5.00
2022-11-08T01:04:14.889Z,3.88
2022-11-08T01:13:59.504Z,3.00
2022-11-08T01:16:27.109Z,2.80
2022-11-08T01:18:54.658Z,4.50
2022-11-08T01:21:21.906Z,6.45
2022-11-08T01:23:48.945Z,3.22
2022-11-08T01:26:17.538Z,5.60
2022-11-08T01:28:44.326Z,4.22
2022-11-08T01:31:12.386Z,3.50
2022-11-08T01:33:39.577Z,4.05
2022-11-08T01:36:06.849Z,4.70
2022-11-08T01:40:59.639Z,3.35
2022-11-08T01:43:26.285Z,3.65
2022-11-08T01:48:42.033Z,3.65
2022-11-08T01:51:09.717Z,5.25
2022-11-08T01:58:30.297Z,3.38
2022-11-08T02:00:57.701Z,2.90
2022-11-08T02:03:24.389Z,5.65
2022-11-08T02:05:51.143Z,4.90
2022-11-08T02:08:34.500Z,5.82
2022-11-08T02:11:01.915Z,3.92
2022-11-08T02:13:29.412Z,4.15
2022-11-08T02:18:23.165Z,6.90
2022-11-08T02:20:58.849Z,5.50
2022-11-08T02:23:29.017Z,8.13
2022-11-08T02:25:55.653Z,4.05
2022-11-08T02:28:22.416Z,6.13
2022-11-08T02:30:49.033Z,6.20
2022-11-08T02:33:16.614Z,6.70
2022-11-08T02:35:44.961Z,5.40
2022-11-08T02:38:11.529Z,5.50
2022-11-08T02:40:48.214Z,4.78
2022-11-08T02:43:14.881Z,4.82
2022-11-08T02:45:41.477Z,4.97
2022-11-08T02:50:33.960Z,6.50
2022-11-08T02:53:00.599Z,3.65
2022-11-08T03:05:10.169Z,7.05
2022-11-08T03:07:40.348Z,6.25
2022-11-08T03:12:32.520Z,3.97
2022-11-08T03:14:59.158Z,10.57
2022-11-08T03:19:51.600Z,4.60
2022-11-08T03:22:18.278Z,9.10
2022-11-08T03:24:44.994Z,6.85
2022-11-08T03:27:11.610Z,5.57
2022-11-08T03:29:38.190Z,7.72
2022-11-08T03:32:04.924Z,5.30
2022-11-08T03:34:31.541Z,5.70
2022-11-08T03:36:58.099Z,6.28
2022-11-08T03:39:24.757Z,6.78
2022-11-08T03:41:51.360Z,7.32
2022-11-08T03:44:17.939Z,3.63
2022-11-08T03:46:44.528Z,9.65
2022-11-08T03:49:11.120Z,5.38
2022-11-08T03:51:37.708Z,4.70
2022-11-08T03:54:04.393Z,8.50
2022-11-08T03:56:31.008Z,6.47
2022-11-08T03:58:57.611Z,4.72
2022-11-08T04:01:24.317Z,6.20
2022-11-08T04:03:51.066Z,5.03
2022-11-08T04:06:17.613Z,6.78
2022-11-08T04:08:44.218Z,5.35
2022-11-08T04:11:29.231Z,6.65
2022-11-08T04:14:14.393Z,6.07
2022-11-08T04:16:41.016Z,7.82
2022-11-08T04:19:26.003Z,6.05
2022-11-08T04:21:53.181Z,5.93
2022-11-08T04:24:20.333Z,4.88
2022-11-08T04:31:38.977Z,7.43
2022-11-08T04:38:57.012Z,11.95
2022-11-08T04:41:24.514Z,8.38
2022-11-08T04:43:52.280Z,8.52
2022-11-08T04:46:20.040Z,6.35
2022-11-08T04:48:46.677Z,5.05
2022-11-08T04:51:16.352Z,9.07
2022-11-08T04:53:43.432Z,5.65
2022-11-08T04:58:39.713Z,4.65
2022-11-08T05:01:07.686Z,7.53
2022-11-08T05:06:04.277Z,12.25
2022-11-08T05:08:31.338Z,6.95
2022-11-08T05:13:31.587Z,7.25
2022-11-08T05:16:02.253Z,6.68
2022-11-08T05:18:30.909Z,9.10
2022-11-08T05:21:17.037Z,7.78
2022-11-08T05:23:43.964Z,8.23
2022-11-08T05:26:10.665Z,8.57
2022-11-08T05:28:37.368Z,10.15
2022-11-08T05:33:29.798Z,10.05
2022-11-08T05:35:56.479Z,6.25
2022-11-08T05:40:48.606Z,4.50
2022-11-08T05:43:15.595Z,7.80
2022-11-08T05:45:42.603Z,8.50
2022-11-08T05:48:09.202Z,5.38
2022-11-08T05:50:36.127Z,5.22
2022-11-08T05:55:28.567Z,11.02
2022-11-08T05:57:55.204Z,4.85
2022-11-08T06:00:21.918Z,3.47
2022-11-08T06:02:48.666Z,4.85
2022-11-08T06:05:15.430Z,3.85
2022-11-08T06:07:42.006Z,4.63
2022-11-08T06:10:10.301Z,4.00
2022-11-08T06:12:38.280Z,2.45
2022-11-08T06:19:57.006Z,5.53
2022-11-08T06:22:23.687Z,1.98
2022-11-08T06:24:50.400Z,3.17
2022-11-08T06:27:17.213Z,6.43
2022-11-08T06:29:43.804Z,5.75
2022-11-08T06:32:10.649Z,2.25
2022-11-08T06:34:37.314Z,7.53
2022-11-08T06:41:55.997Z,5.47
2022-11-08T06:44:22.669Z,7.40
2022-11-08T06:46:49.301Z,5.32
2022-11-08T06:49:15.908Z,6.07
2022-11-08T06:54:08.874Z,7.20
2022-11-08T06:56:36.492Z,5.18
2022-11-08T06:59:03.239Z,2.92
2022-11-08T07:01:30.106Z,8.15
2022-11-08T07:03:56.850Z,5.82
2022-11-08T07:08:49.181Z,5.10
2022-11-08T07:11:16.017Z,4.35
2022-11-08T07:16:14.560Z,4.72
2022-11-08T07:18:41.476Z,5.70
2022-11-08T07:21:08.357Z,9.23
2022-11-08T07:28:27.757Z,5.35
2022-11-08T07:30:57.658Z,5.32
2022-11-08T07:33:24.318Z,2.30
2022-11-08T07:35:50.941Z,7.65
2022-11-08T07:38:17.593Z,4.95
2022-11-08T07:43:12.281Z,7.25
2022-11-08T07:45:40.020Z,3.95
2022-11-08T07:50:33.934Z,4.75
2022-11-08T07:53:00.633Z,8.35
2022-11-08T07:55:27.658Z,7.03
2022-11-08T07:57:58.879Z,5.45
2022-11-08T08:05:16.297Z,7.88
2022-11-08T08:12:34.044Z,10.35
2022-11-08T08:17:26.160Z,8.30
2022-11-08T08:19:52.789Z,6.35
2022-11-08T08:22:19.398Z,7.82
2022-11-08T08:24:46.020Z,8.60
2022-11-08T08:27:12.584Z,7.63
2022-11-08T08:29:39.152Z,9.63
2022-11-08T08:32:05.795Z,12.88
2022-11-08T08:34:32.432Z,7.03
2022-11-08T08:36:59.082Z,10.85
2022-11-08T08:39:25.720Z,10.95
2022-11-08T08:41:52.313Z,11.40
2022-11-08T08:44:18.862Z,10.00
2022-11-08T08:46:45.457Z,10.90
2022-11-08T08:49:12.085Z,11.10
2022-11-08T08:54:04.141Z,10.65
2022-11-08T08:56:31.037Z,12.43
2022-11-08T09:08:39.442Z,13.57
2022-11-08T09:11:06.163Z,11.48
2022-11-08T09:13:32.838Z,10.40
2022-11-08T09:16:01.497Z,14.10
2022-11-08T09:18:28.509Z,11.93
2022-11-08T09:20:58.664Z,13.45
2022-11-08T09:23:25.732Z,16.65
2022-11-08T09:28:31.450Z,13.35
2022-11-08T09:31:05.451Z,15.27
2022-11-08T09:33:32.506Z,11.35
2022-11-08T09:36:00.400Z,15.65
2022-11-08T09:38:27.460Z,12.50
2022-11-08T09:41:02.645Z,15.40
2022-11-08T09:43:47.821Z,14.73
2022-11-08T09:48:44.488Z,14.15
2022-11-08T09:51:16.345Z,15.02
2022-11-08T09:53:51.945Z,14.57
2022-11-08T09:56:21.505Z,15.18
2022-11-08T09:59:17.536Z,13.27
2022-11-08T10:01:44.400Z,12.43
2022-11-08T10:04:22.289Z,11.40
2022-11-08T10:15:33.023Z,12.65
2022-11-08T10:18:21.098Z,14.48
2022-11-08T10:20:50.661Z,16.92
2022-11-08T10:23:22.002Z,16.65
2022-11-08T10:31:02.641Z,11.63
2022-11-08T10:33:37.627Z,16.70
2022-11-08T10:36:10.104Z,12.07
2022-11-08T10:38:43.897Z,13.77
2022-11-08T10:41:14.600Z,16.08
2022-11-08T10:43:52.194Z,12.73
2022-11-08T10:46:37.165Z,16.95
2022-11-08T10:49:21.090Z,10.90
2022-11-08T10:51:50.313Z,15.57
2022-11-08T10:54:35.813Z,10.63
2022-11-08T10:57:02.431Z,12.57
2022-11-08T10:59:30.990Z,15.45
2022-11-08T11:01:57.675Z,12.82
2022-11-08T11:04:34.924Z,15.30
2022-11-08T11:07:24.796Z,14.85
2022-11-08T11:09:51.505Z,18.08
2022-11-08T11:12:18.127Z,14.73
2022-11-08T11:22:27.972Z,13.70
2022-11-08T11:24:55.360Z,14.75
2022-11-08T11:27:26.585Z,15.40
2022-11-08T11:32:36.490Z,12.57
2022-11-08T11:35:05.286Z,10.45
2022-11-08T11:37:32.374Z,15.40
2022-11-08T11:40:06.343Z,15.15
2022-11-08T11:42:47.036Z,10.10
2022-11-08T11:45:37.016Z,8.40
2022-11-08T11:48:12.089Z,10.70
2022-11-08T11:51:25.572Z,11.43
2022-11-08T11:53:52.177Z,12.60
2022-11-08T11:56:28.021Z,12.98
2022-11-08T11:59:05.710Z,14.82
2022-11-08T12:01:56.564Z,11.32
2022-11-08T12:07:04.987Z,11.00
2022-11-08T12:12:09.349Z,10.80
2022-11-08T12:14:42.807Z,12.90
2022-11-08T12:17:19.730Z,14.13
2022-11-08T12:27:34.950Z,15.82
2022-11-08T12:30:09.032Z,14.93
2022-11-08T12:32:35.691Z,17.48
2022-11-08T12:35:08.422Z,11.38
2022-11-08T12:37:43.473Z,16.02
2022-11-08T12:40:16.306Z,14.50
2022-11-08T12:42:45.998Z,11.95
2022-11-08T12:45:34.077Z,14.80
2022-11-08T12:48:16.144Z,12.82
2022-11-08T12:50:55.220Z,9.50
2022-11-08T12:53:32.621Z,13.13
2022-11-08T12:55:59.725Z,10.95
2022-11-08T12:58:34.392Z,13.52
2022-11-08T13:01:20.531Z,15.90
2022-11-08T13:03:54.990Z,14.20
2022-11-08T13:06:34.311Z,15.43
2022-11-08T13:09:16.195Z,18.60
2022-11-08T13:11:49.907Z,10.95
2022-11-08T13:14:17.841Z,16.35
2022-11-08T13:16:45.738Z,14.70
2022-11-08T13:27:23.881Z,17.35
2022-11-08T13:29:51.491Z,14.57
2022-11-08T13:32:21.950Z,12.32
2022-11-08T13:34:51.622Z,13.82
2022-11-08T13:37:36.581Z,12.27
2022-11-08T13:42:50.471Z,15.50
2022-11-08T13:45:17.101Z,16.45
2022-11-08T13:50:27.737Z,19.08
2022-11-08T13:53:11.170Z,14.75
2022-11-08T13:55:43.829Z,14.20
2022-11-08T13:58:29.180Z,18.40
2022-11-08T14:00:56.085Z,10.85
2022-11-08T14:04:12.304Z,13.95
2022-11-08T14:06:58.206Z,11.30
2022-11-08T14:09:29.170Z,15.30
2022-11-08T14:12:16.059Z,14.65
2022-11-08T14:15:03.841Z,11.20
2022-11-08T14:17:33.239Z,13.88
2022-11-08T14:20:15.443Z,16.13
2022-11-08T14:22:48.760Z,14.35
2022-11-08T14:25:19.785Z,14.23
2022-11-08T14:30:16.389Z,9.60
2022-11-08T14:32:43.119Z,13.48
2022-11-08T14:40:07.613Z,13.73
2022-11-08T14:42:34.287Z,12.85
2022-11-08T14:49:54.203Z,19.95
2022-11-08T14:52:26.003Z,12.82
2022-11-08T14:55:00.615Z,16.45
2022-11-08T14:57:37.357Z,14.70
2022-11-08T15:00:06.093Z,14.43
2022-11-08T15:02:33.373Z,11.50
2022-11-08T15:05:00.171Z,9.77
2022-11-08T15:07:27.007Z,9.15
2022-11-08T15:09:54.197Z,16.33
2022-11-08T15:15:00.521Z,9.60
2022-11-08T15:17:30.653Z,13.25
2022-11-08T15:20:17.568Z,11.35
2022-11-08T15:25:19.467Z,11.20
2022-11-08T15:27:57.394Z,12.15
2022-11-08T15:30:30.063Z,14.48
2022-11-08T15:38:06.752Z,19.08
2022-11-08T15:40:36.144Z,19.58
2022-11-08T15:43:03.051Z,13.95
2022-11-08T15:45:35.441Z,11.43
2022-11-08T15:48:12.478Z,13.20
2022-11-08T15:50:39.307Z,15.98
2022-11-08T15:53:07.109Z,14.65
2022-11-08T15:58:05.013Z,13.88
2022-11-08T16:00:33.524Z,18.88
2022-11-08T16:03:00.146Z,11.35
2022-11-08T16:05:28.062Z,8.85
2022-11-08T16:07:55.193Z,16.30
2022-11-08T16:10:27.116Z,10.50
2022-11-08T16:12:53.978Z,11.77
2022-11-08T16:15:21.913Z,14.98
2022-11-08T16:17:48.824Z,19.95
2022-11-08T16:20:32.317Z,13.10
2022-11-08T16:23:00.120Z,13.57
2022-11-08T16:25:28.152Z,11.48
2022-11-08T16:27:59.498Z,19.35
2022-11-08T16:32:52.631Z,11.63
2022-11-08T16:35:19.591Z,18.77
2022-11-08T16:45:07.840Z,20.58
2022-11-08T16:47:35.019Z,15.73
2022-11-08T16:50:01.743Z,12.85
2022-11-08T16:52:28.403Z,20.20
2022-11-08T16:54:54.976Z,18.50
2022-11-08T16:57:34.102Z,16.48
2022-11-08T17:00:01.534Z,13.43
2022-11-08T17:02:30.508Z,21.10
2022-11-08T17:04:57.242Z,10.35
2022-11-08T17:07:27.549Z,19.42
2022-11-08T17:12:20.784Z,17.92
2022-11-08T17:14:47.724Z,13.00
2022-11-08T17:22:06.209Z,16.13
2022-11-08T17:24:33.229Z,17.38
2022-11-08T17:27:01.476Z,18.67
2022-11-08T17:29:29.712Z,14.27
2022-11-08T17:36:47.768Z,14.98
2022-11-08T17:39:14.533Z,17.17
2022-11-08T17:41:41.140Z,14.02
2022-11-08T17:44:07.700Z,16.52
2022-11-08T17:46:34.535Z,12.77
2022-11-08T17:49:01.158Z,15.48
2022-11-08T17:51:27.748Z,15.07
2022-11-08T17:56:19.825Z,18.63
2022-11-08T17:58:46.618Z,12.75
2022-11-08T18:01:13.917Z,16.08
2022-11-08T18:03:41.179Z,14.13
2022-11-08T18:06:12.174Z,12.38
2022-11-08T18:11:05.293Z,16.80
2022-11-08T18:13:35.890Z,15.35
2022-11-08T18:16:07.813Z,13.88
2022-11-08T18:18:34.790Z,8.45
2022-11-08T18:21:01.368Z,17.52
2022-11-08T18:23:27.971Z,12.95
2022-11-08T18:25:56.235Z,13.88
2022-11-08T18:28:23.560Z,12.93
2022-11-08T18:35:41.702Z,13.93
2022-11-08T18:40:33.849Z,12.15
2022-11-08T18:43:00.476Z,16.63
2022-11-08T18:45:27.117Z,14.60
2022-11-08T18:47:54.268Z,15.18
2022-11-08T18:50:20.868Z,22.65
2022-11-08T18:52:48.295Z,26.25
2022-11-08T18:55:15.486Z,19.48
2022-11-08T18:57:42.205Z,12.07
2022-11-08T19:00:09.147Z,19.05
2022-11-08T19:02:36.115Z,15.70
2022-11-08T19:05:02.811Z,17.83
2022-11-08T19:12:21.113Z,20.77
2022-11-08T19:14:48.353Z,18.27
2022-11-08T19:17:16.402Z,19.70
2022-11-08T19:19:44.355Z,19.70
2022-11-08T19:24:36.725Z,19.80
2022-11-08T19:27:03.550Z,18.13
2022-11-08T19:29:30.243Z,19.73
2022-11-08T19:32:00.122Z,17.75
2022-11-08T19:34:27.168Z,18.42
2022-11-08T19:36:55.962Z,16.52
2022-11-08T19:44:17.257Z,19.02
2022-11-08T19:46:44.227Z,17.83
2022-11-08T19:49:11.030Z,18.85
2022-11-08T19:51:39.122Z,21.50
2022-11-08T20:03:51.585Z,18.77
2022-11-08T20:06:19.569Z,26.48
2022-11-08T20:08:53.130Z,17.05
2022-11-08T20:11:24.159Z,15.77
2022-11-08T20:13:51.288Z,18.70
2022-11-08T20:16:21.552Z,14.73
2022-11-08T20:18:48.261Z,16.35
2022-11-08T20:21:16.130Z,18.73
2022-11-08T20:23:43.392Z,16.33
2022-11-08T20:26:14.012Z,18.23
2022-11-08T20:28:41.938Z,17.20
2022-11-08T20:31:10.927Z,19.75
2022-11-08T20:33:39.632Z,18.70
2022-11-08T20:36:10.950Z,13.43
2022-11-08T20:38:37.882Z,16.30
2022-11-08T20:41:05.153Z,15.05
2022-11-08T20:46:07.744Z,16.05
2022-11-08T20:48:34.478Z,14.13
2022-11-08T20:51:01.847Z,13.70
2022-11-08T20:53:30.378Z,18.40
2022-11-08T20:56:00.688Z,17.08
2022-11-08T20:58:29.338Z,15.95
2022-11-08T21:00:58.828Z,14.30
2022-11-08T21:05:55.804Z,12.68
2022-11-08T21:13:37.010Z,22.08
2022-11-08T21:16:28.028Z,13.88
2022-11-08T21:23:45.333Z,13.20
2022-11-08T21:26:12.570Z,21.92
2022-11-08T21:28:39.460Z,24.83
2022-11-08T21:31:07.085Z,14.38
2022-11-08T21:33:34.049Z,12.32
2022-11-08T21:36:00.989Z,15.27
2022-11-08T21:38:27.835Z,9.55
2022-11-08T21:40:55.016Z,11.90
2022-11-08T21:43:22.131Z,16.35
2022-11-08T21:45:48.892Z,14.65
2022-11-08T21:48:15.758Z,16.50
2022-11-08T21:50:42.427Z,10.70
2022-11-08T21:53:10.685Z,8.30
2022-11-08T21:55:37.278Z,12.80
2022-11-08T21:58:04.009Z,15.38
2022-11-08T22:00:30.767Z,11.32
2022-11-08T22:05:23.358Z,15.45
2022-11-08T22:07:49.980Z,12.77
2022-11-08T22:10:16.689Z,16.02
2022-11-08T22:12:43.333Z,13.90
2022-11-08T22:15:10.234Z,14.50
2022-11-08T22:20:24.077Z,13.70
2022-11-08T22:25:16.238Z,12.93
2022-11-08T22:27:42.848Z,11.45
2022-11-08T22:30:15.453Z,11.45
2022-11-08T22:32:43.220Z,16.63
2022-11-08T22:35:09.812Z,13.45
2022-11-08T22:37:36.423Z,15.63
2022-11-08T22:40:03.225Z,16.08
2022-11-08T22:42:29.884Z,13.98
2022-11-08T22:44:56.455Z,7.68
2022-11-08T22:47:23.093Z,19.67
2022-11-08T22:49:49.733Z,13.13
2022-11-08T22:52:16.430Z,13.65
2022-11-08T22:54:43.060Z,17.08
2022-11-08T22:57:09.687Z,15.13
2022-11-08T22:59:36.293Z,12.48
2022-11-08T23:02:02.850Z,15.48
2022-11-08T23:04:29.426Z,16.52
2022-11-08T23:06:56.133Z,12.60
2022-11-08T23:09:22.843Z,12.65
2022-11-08T23:12:07.945Z,15.60
2022-11-08T23:14:52.976Z,13.40
2022-11-08T23:17:19.625Z,10.88
2022-11-08T23:20:04.931Z,11.48
2022-11-08T23:22:49.983Z,11.73
2022-11-08T23:25:16.666Z,17.83
2022-11-08T23:28:01.625Z,16.67
2022-11-08T23:30:46.971Z,10.98
2022-11-08T23:38:24.304Z,14.73
2022-11-08T23:41:09.719Z,16.08
2022-11-08T23:46:20.086Z,14.20
2022-11-08T23:48:46.736Z,10.68
2022-11-08T23:51:13.355Z,13.05
2022-11-08T23:53:40.059Z,15.52
2022-11-08T23:56:06.809Z,18.13
2022-11-08T23:58:33.722Z,10.52
